createdAt,value
2019-02-02T00:00:35.837Z,33.00
2019-02-02T00:03:07.425Z,30.37
2019-02-02T00:05:37.440Z,31.97
2019-02-02T00:08:07.980Z,32.13
2019-02-02T00:10:37.839Z,30.70
2019-02-02T00:13:08.390Z,31.00
2019-02-02T00:15:38.431Z,33.40
2019-02-02T00:18:08.579Z,32.10
2019-02-02T00:20:38.463Z,31.23
2019-02-02T00:23:08.772Z,33.13
2019-02-02T00:25:57.859Z,33.00
2019-02-02T00:29:06.471Z,32.93
2019-02-02T00:31:55.577Z,31.43
2019-02-02T00:34:44.688Z,30.77
2019-02-02T00:37:33.780Z,32.53
2019-02-02T00:40:23.252Z,33.53
2019-02-02T00:43:12.413Z,34.47
2019-02-02T00:46:01.519Z,34.07
2019-02-02T00:48:50.638Z,36.03
2019-02-02T00:51:39.816Z,33.90
2019-02-02T00:54:28.943Z,34.43
2019-02-02T00:57:18.061Z,33.97
2019-02-02T01:00:09.311Z,32.87
2019-02-02T01:02:58.420Z,36.27
2019-02-02T01:05:47.683Z,34.40
2019-02-02T01:08:36.850Z,32.27
2019-02-02T01:11:26.026Z,33.60
2019-02-02T01:14:15.498Z,35.00
2019-02-02T01:17:25.221Z,31.97
2019-02-02T01:20:07.557Z,34.40
2019-02-02T01:22:56.675Z,34.27
2019-02-02T01:25:45.813Z,35.10
2019-02-02T01:28:34.927Z,35.07
2019-02-02T01:31:24.027Z,33.80
2019-02-02T01:34:13.131Z,35.43
2019-02-02T01:37:02.241Z,37.17
2019-02-02T01:39:51.662Z,36.97
2019-02-02T01:42:40.820Z,36.50
2019-02-02T01:45:30.132Z,35.30
2019-02-02T01:48:19.854Z,36.20
2019-02-02T01:51:09.112Z,35.73
2019-02-02T01:53:58.501Z,35.97
2019-02-02T01:56:47.615Z,36.33
2019-02-02T01:59:36.701Z,36.30
2019-02-02T02:02:25.796Z,36.17
2019-02-02T02:05:15.028Z,35.80
2019-02-02T02:08:04.469Z,37.23
2019-02-02T02:10:53.574Z,38.00
2019-02-02T02:13:43.003Z,37.80
2019-02-02T02:16:32.388Z,36.13
2019-02-02T02:19:12.961Z,37.30
2019-02-02T02:22:02.023Z,40.93
2019-02-02T02:24:51.175Z,38.37
2019-02-02T02:27:40.433Z,41.00
2019-02-02T02:30:29.566Z,39.30
2019-02-02T02:33:18.738Z,37.83
2019-02-02T02:36:08.143Z,37.00
2019-02-02T02:38:57.272Z,39.33
2019-02-02T02:41:46.622Z,40.50
2019-02-02T02:44:35.764Z,41.00
2019-02-02T02:47:24.880Z,40.87
2019-02-02T02:50:54.564Z,41.43
2019-02-02T02:53:43.653Z,40.80
2019-02-02T02:56:32.745Z,40.73
2019-02-02T02:59:21.905Z,41.73
2019-02-02T03:02:10.970Z,42.20
2019-02-02T03:05:00.226Z,42.20
2019-02-02T03:07:51.615Z,43.87
2019-02-02T03:10:40.693Z,44.70
2019-02-02T03:13:30.120Z,45.70
2019-02-02T03:16:19.482Z,42.90
2019-02-02T03:19:03.322Z,43.13
2019-02-02T03:21:52.415Z,47.07
2019-02-02T03:24:41.510Z,44.30
2019-02-02T03:27:30.638Z,46.40
2019-02-02T03:30:20.497Z,44.63
2019-02-02T03:33:09.839Z,45.83
2019-02-02T03:35:58.999Z,46.47
2019-02-02T03:38:48.078Z,46.17
2019-02-02T03:41:37.212Z,48.30
2019-02-02T03:44:26.732Z,48.43
2019-02-02T03:50:10.319Z,49.90
2019-02-02T03:52:59.403Z,48.47
2019-02-02T03:55:48.598Z,51.77
2019-02-02T03:58:37.725Z,51.60
2019-02-02T04:01:29.868Z,51.17
2019-02-02T04:04:17.690Z,49.40
2019-02-02T04:07:06.791Z,52.33
2019-02-02T04:09:55.920Z,52.13
2019-02-02T04:12:45.040Z,55.13
2019-02-02T04:15:34.248Z,52.43
2019-02-02T04:18:23.649Z,52.60
2019-02-02T04:21:06.259Z,53.90
2019-02-02T04:23:55.674Z,56.20
2019-02-02T04:26:44.806Z,57.30
2019-02-02T04:29:33.914Z,55.03
2019-02-02T04:32:23.041Z,57.00
2019-02-02T04:35:12.424Z,54.27
2019-02-02T04:38:01.810Z,54.67
2019-02-02T04:40:51.526Z,54.53
2019-02-02T04:43:40.707Z,56.53
2019-02-02T04:46:29.857Z,56.40
2019-02-02T04:49:19.013Z,57.40
2019-02-02T04:52:08.328Z,55.70
2019-02-02T04:54:58.046Z,59.83
2019-02-02T04:57:49.477Z,54.27
2019-02-02T05:00:38.580Z,56.93
2019-02-02T05:03:27.709Z,54.87
2019-02-02T05:06:16.823Z,56.00
2019-02-02T05:09:47.247Z,57.47
2019-02-02T05:12:36.623Z,56.37
2019-02-02T05:15:25.730Z,55.30
2019-02-02T05:18:14.842Z,57.13
2019-02-02T05:20:56.617Z,54.10
2019-02-02T05:23:45.701Z,53.10
2019-02-02T05:26:35.067Z,54.00
2019-02-02T05:29:24.550Z,53.30
2019-02-02T05:32:15.827Z,57.00
2019-02-02T05:35:45.061Z,53.23
2019-02-02T05:38:34.511Z,56.30
2019-02-02T05:41:24.286Z,54.33
2019-02-02T05:44:13.390Z,53.10
2019-02-02T05:47:02.796Z,53.00
2019-02-02T05:49:51.892Z,52.17
2019-02-02T05:52:41.032Z,54.00
2019-02-02T05:55:30.503Z,56.63
2019-02-02T05:58:19.650Z,57.00
2019-02-02T06:04:07.212Z,54.30
2019-02-02T06:06:56.590Z,53.37
2019-02-02T06:09:45.934Z,53.13
2019-02-02T06:12:35.539Z,53.67
2019-02-02T06:15:24.713Z,52.97
2019-02-02T06:18:14.096Z,55.37
2019-02-02T06:20:56.482Z,55.47
2019-02-02T06:23:45.573Z,56.73
2019-02-02T06:26:34.696Z,57.17
2019-02-02T06:29:23.837Z,61.60
2019-02-02T06:32:12.957Z,61.07
2019-02-02T06:35:02.321Z,60.67
2019-02-02T06:37:51.459Z,60.43
2019-02-02T06:40:40.559Z,58.77
2019-02-02T06:43:30.367Z,60.10
2019-02-02T06:46:20.814Z,62.20
2019-02-02T06:49:09.932Z,58.77
2019-02-02T06:51:59.169Z,62.33
2019-02-02T06:54:48.260Z,60.37
2019-02-02T06:57:37.381Z,60.13
2019-02-02T07:00:26.931Z,60.10
2019-02-02T07:03:17.729Z,57.83
2019-02-02T07:06:07.134Z,58.70
2019-02-02T07:08:56.468Z,64.50
2019-02-02T07:11:45.592Z,60.63
2019-02-02T07:14:35.057Z,62.07
2019-02-02T07:17:24.181Z,62.23
2019-02-02T07:20:07.352Z,61.23
2019-02-02T07:22:49.585Z,62.00
2019-02-02T07:25:39.305Z,60.00
2019-02-02T07:28:28.453Z,65.67
2019-02-02T07:31:17.676Z,58.33
2019-02-02T07:34:06.767Z,63.00
2019-02-02T07:43:19.858Z,65.10
2019-02-02T07:46:14.896Z,60.67
2019-02-02T07:48:59.815Z,60.60
2019-02-02T07:51:49.240Z,63.37
2019-02-02T07:54:38.692Z,65.03
2019-02-02T07:57:27.798Z,57.67
2019-02-02T08:00:41.094Z,63.40
2019-02-02T08:03:28.953Z,67.93
2019-02-02T08:06:19.772Z,62.10
2019-02-02T08:09:49.122Z,62.87
2019-02-02T08:12:38.215Z,63.63
2019-02-02T08:16:08.467Z,66.30
2019-02-02T08:18:57.556Z,65.10
2019-02-02T08:21:46.700Z,67.43
2019-02-02T08:24:38.548Z,67.97
2019-02-02T08:27:26.696Z,65.20
2019-02-02T08:30:18.139Z,65.07
2019-02-02T08:33:07.428Z,65.87
2019-02-02T08:35:56.776Z,65.10
2019-02-02T08:38:45.957Z,63.43
2019-02-02T08:41:35.435Z,62.67
2019-02-02T08:44:25.036Z,64.30
2019-02-02T08:47:14.137Z,64.33
2019-02-02T08:50:03.344Z,64.87
2019-02-02T08:52:52.476Z,61.13
2019-02-02T08:55:41.554Z,63.97
2019-02-02T08:58:30.760Z,59.83
2019-02-02T09:01:20.224Z,62.90
2019-02-02T09:04:09.547Z,65.30
2019-02-02T09:06:59.071Z,61.50
2019-02-02T09:09:48.451Z,62.90
2019-02-02T09:12:37.693Z,64.67
2019-02-02T09:15:27.130Z,64.43
2019-02-02T09:18:16.641Z,59.17
2019-02-02T09:20:58.855Z,63.83
2019-02-02T09:23:47.970Z,61.53
2019-02-02T09:26:37.116Z,63.80
2019-02-02T09:29:26.625Z,66.40
2019-02-02T09:32:15.944Z,62.30
2019-02-02T09:34:58.304Z,65.00
2019-02-02T09:37:47.697Z,61.83
2019-02-02T09:43:31.057Z,63.57
2019-02-02T09:46:20.164Z,62.70
2019-02-02T09:49:10.089Z,65.20
2019-02-02T09:51:59.189Z,62.87
2019-02-02T09:54:48.599Z,62.13
2019-02-02T09:57:37.753Z,59.50
2019-02-02T10:00:31.221Z,57.60
2019-02-02T10:03:20.657Z,59.27
2019-02-02T10:06:09.733Z,61.20
2019-02-02T10:08:59.112Z,59.57
2019-02-02T10:11:48.529Z,62.43
2019-02-02T10:14:37.673Z,60.17
2019-02-02T10:17:26.884Z,58.87
2019-02-02T10:23:18.722Z,65.10
2019-02-02T10:26:15.640Z,64.97
2019-02-02T10:29:05.081Z,63.27
2019-02-02T10:31:54.185Z,67.80
2019-02-02T10:34:43.886Z,66.20
2019-02-02T10:37:25.594Z,61.90
2019-02-02T10:40:14.865Z,63.40
2019-02-02T10:46:19.725Z,64.63
2019-02-02T10:49:08.893Z,69.37
2019-02-02T10:51:58.010Z,65.13
2019-02-02T10:55:08.318Z,67.67
2019-02-02T11:01:12.766Z,64.40
2019-02-02T11:04:01.976Z,64.80
2019-02-02T11:06:51.137Z,65.30
2019-02-02T11:09:40.207Z,71.83
2019-02-02T11:12:29.348Z,72.20
2019-02-02T11:15:19.430Z,68.93
2019-02-02T11:18:10.118Z,69.70
2019-02-02T11:20:59.697Z,70.77
2019-02-02T11:23:42.067Z,76.03
2019-02-02T11:26:31.222Z,75.07
2019-02-02T11:29:20.768Z,74.07
2019-02-02T11:32:10.264Z,77.70
2019-02-02T11:34:59.414Z,73.83
2019-02-02T11:37:48.678Z,79.67
2019-02-02T11:40:37.889Z,79.10
2019-02-02T11:43:27.043Z,81.40
2019-02-02T11:46:16.172Z,80.87
2019-02-02T11:49:05.394Z,74.23
2019-02-02T11:51:54.507Z,74.20
2019-02-02T11:54:44.337Z,74.80
2019-02-02T11:57:33.686Z,76.93
2019-02-02T12:00:25.165Z,78.00
2019-02-02T12:03:14.246Z,75.53
2019-02-02T12:06:03.360Z,71.97
2019-02-02T12:08:52.828Z,73.77
2019-02-02T12:11:41.980Z,74.07
2019-02-02T12:14:31.105Z,76.43
2019-02-02T12:17:20.245Z,74.23
2019-02-02T12:20:11.081Z,76.90
2019-02-02T12:23:00.216Z,80.20
2019-02-02T12:25:41.862Z,78.63
2019-02-02T12:28:30.996Z,77.03
2019-02-02T12:31:20.110Z,79.17
2019-02-02T12:34:09.251Z,80.50
2019-02-02T12:36:58.371Z,80.57
2019-02-02T12:39:47.510Z,83.70
2019-02-02T12:42:36.642Z,88.20
2019-02-02T12:45:49.270Z,84.60
2019-02-02T12:48:38.456Z,86.33
2019-02-02T12:51:27.687Z,86.30
2019-02-02T12:54:16.823Z,86.07
2019-02-02T12:57:05.983Z,79.77
2019-02-02T12:59:55.218Z,77.83
2019-02-02T13:02:44.717Z,80.37
2019-02-02T13:05:33.865Z,82.90
2019-02-02T13:08:23.311Z,83.00
2019-02-02T13:11:12.525Z,78.27
2019-02-02T13:14:01.887Z,78.47
2019-02-02T13:16:51.003Z,77.00
2019-02-02T13:19:40.092Z,76.57
2019-02-02T13:22:29.270Z,80.00
2019-02-02T13:25:12.742Z,74.07
2019-02-02T13:28:01.898Z,75.30
2019-02-02T13:30:51.111Z,76.33
2019-02-02T13:33:40.202Z,72.90
2019-02-02T13:36:48.553Z,76.73
2019-02-02T13:39:37.964Z,79.90
2019-02-02T13:42:27.124Z,74.90
2019-02-02T13:45:56.420Z,74.13
2019-02-02T13:48:46.175Z,74.97
2019-02-02T13:51:35.279Z,69.67
2019-02-02T13:54:24.447Z,70.33
2019-02-02T13:57:13.556Z,70.70
2019-02-02T14:00:02.730Z,67.50
2019-02-02T14:03:02.420Z,71.73
2019-02-02T14:05:42.998Z,66.07
2019-02-02T14:08:32.483Z,66.50
2019-02-02T14:11:21.607Z,69.07
2019-02-02T14:14:10.721Z,66.77
2019-02-02T14:17:19.378Z,64.90
2019-02-02T14:20:09.817Z,63.40
2019-02-02T14:22:59.029Z,61.63
2019-02-02T14:25:40.500Z,61.70
2019-02-02T14:28:29.701Z,62.40
2019-02-02T14:31:19.119Z,64.93
2019-02-02T14:34:08.447Z,63.40
2019-02-02T14:36:57.533Z,59.77
2019-02-02T14:39:49.140Z,60.47
2019-02-02T14:42:37.524Z,64.70
2019-02-02T14:45:27.909Z,59.23
2019-02-02T14:48:17.891Z,62.83
2019-02-02T14:51:07.071Z,60.77
2019-02-02T14:53:56.402Z,61.67
2019-02-02T14:56:48.204Z,62.87
2019-02-02T14:59:37.102Z,63.90
2019-02-02T15:02:26.278Z,68.23
2019-02-02T15:05:16.227Z,63.83
2019-02-02T15:08:05.491Z,67.27
2019-02-02T15:10:54.574Z,66.10
2019-02-02T15:13:43.721Z,65.63
2019-02-02T15:16:32.961Z,72.90
2019-02-02T15:19:22.097Z,65.67
2019-02-02T15:22:11.310Z,68.27
2019-02-02T15:25:00.454Z,69.40
2019-02-02T15:27:50.022Z,73.33
2019-02-02T15:30:39.563Z,70.23
2019-02-02T15:33:37.508Z,75.03
2019-02-02T15:36:19.819Z,71.33
2019-02-02T15:39:49.769Z,69.30
2019-02-02T15:42:38.848Z,72.83
2019-02-02T15:48:23.295Z,67.23
2019-02-02T15:51:12.707Z,68.67
2019-02-02T15:57:10.125Z,73.30
2019-02-02T15:59:59.251Z,65.70
2019-02-02T16:02:48.621Z,76.07
2019-02-02T16:05:37.959Z,75.10
2019-02-02T16:08:27.527Z,74.77
2019-02-02T16:11:16.624Z,71.77
2019-02-02T16:14:06.181Z,77.03
2019-02-02T16:16:55.286Z,71.60
2019-02-02T16:19:44.398Z,75.90
2019-02-02T16:22:33.482Z,77.57
2019-02-02T16:25:15.288Z,73.57
2019-02-02T16:27:56.330Z,68.67
2019-02-02T16:30:45.472Z,72.17
2019-02-02T16:33:34.588Z,74.70
2019-02-02T16:36:23.797Z,74.50
2019-02-02T16:39:12.877Z,74.27
2019-02-02T16:42:02.000Z,66.80
2019-02-02T16:44:51.106Z,71.53
2019-02-02T16:47:40.230Z,66.50
2019-02-02T16:50:29.513Z,69.20
2019-02-02T16:53:21.714Z,69.50
2019-02-02T16:56:10.033Z,71.43
2019-02-02T16:58:59.164Z,67.80
2019-02-02T17:01:50.008Z,70.97
2019-02-02T17:04:39.141Z,74.37
2019-02-02T17:07:28.281Z,74.43
2019-02-02T17:10:20.069Z,71.37
2019-02-02T17:13:09.539Z,75.53
2019-02-02T17:15:59.031Z,72.97
2019-02-02T17:18:48.240Z,75.20
2019-02-02T17:21:37.341Z,78.80
2019-02-02T17:24:26.510Z,75.43
2019-02-02T17:27:15.630Z,73.80
2019-02-02T17:29:57.362Z,71.80
2019-02-02T17:32:46.631Z,71.70
2019-02-02T17:35:36.368Z,72.80
2019-02-02T17:38:25.504Z,74.40
2019-02-02T17:41:14.913Z,74.30
2019-02-02T17:44:04.130Z,76.00
2019-02-02T17:46:53.853Z,75.03
2019-02-02T17:49:43.267Z,77.70
2019-02-02T17:52:33.406Z,77.63
2019-02-02T17:55:22.506Z,75.27
2019-02-02T17:58:13.400Z,74.60
2019-02-02T18:01:02.937Z,77.50
2019-02-02T18:03:32.826Z,75.00
2019-02-02T18:06:02.948Z,75.53
2019-02-02T18:08:52.447Z,79.67
2019-02-02T18:11:41.801Z,76.00
2019-02-02T18:14:30.982Z,80.50
2019-02-02T18:17:21.136Z,78.20
2019-02-02T18:20:12.071Z,84.83
2019-02-02T18:22:41.928Z,80.57
2019-02-02T18:25:31.166Z,84.17
2019-02-02T18:28:01.090Z,84.20
2019-02-02T18:30:31.470Z,84.17
2019-02-02T18:33:01.422Z,84.37
2019-02-02T18:35:31.374Z,79.33
2019-02-02T18:38:01.318Z,83.80
2019-02-02T18:40:31.157Z,82.60
2019-02-02T18:43:01.029Z,86.23
2019-02-02T18:45:31.090Z,82.47
2019-02-02T18:48:01.077Z,83.57
2019-02-02T18:50:31.356Z,85.30
2019-02-02T18:53:01.259Z,88.20
2019-02-02T18:55:38.866Z,79.60
2019-02-02T18:58:08.732Z,80.30
2019-02-02T19:00:38.662Z,82.53
2019-02-02T19:03:09.058Z,81.57
2019-02-02T19:05:38.953Z,84.67
2019-02-02T19:08:09.038Z,81.50
2019-02-02T19:10:40.051Z,83.53
2019-02-02T19:13:10.413Z,84.13
2019-02-02T19:15:40.384Z,91.80
2019-02-02T19:18:10.385Z,83.40
2019-02-02T19:20:40.249Z,91.70
2019-02-02T19:23:10.218Z,92.17
2019-02-02T19:25:40.089Z,92.03
2019-02-02T19:28:10.223Z,93.17
2019-02-02T19:30:40.194Z,91.13
2019-02-02T19:33:10.688Z,93.97
2019-02-02T19:35:40.706Z,94.30
2019-02-02T19:38:10.862Z,93.97
2019-02-02T19:40:40.720Z,86.30
2019-02-02T19:43:10.661Z,89.93
2019-02-02T19:45:40.553Z,92.43
2019-02-02T19:48:10.407Z,83.63
2019-02-02T19:50:40.290Z,86.23
2019-02-02T19:53:10.266Z,85.53
2019-02-02T19:55:40.483Z,82.27
2019-02-02T19:58:10.444Z,87.40
2019-02-02T20:00:40.722Z,83.73
2019-02-02T20:03:10.573Z,85.10
2019-02-02T20:05:40.503Z,85.30
2019-02-02T20:08:10.372Z,85.03
2019-02-02T20:10:40.252Z,80.30
2019-02-02T20:13:10.113Z,82.30
2019-02-02T20:15:40.016Z,87.30
2019-02-02T20:18:10.734Z,82.77
2019-02-02T20:20:40.748Z,88.87
2019-02-02T20:23:10.628Z,78.00
2019-02-02T20:25:40.553Z,84.17
2019-02-02T20:28:10.504Z,82.60
2019-02-02T20:30:40.500Z,80.17
2019-02-02T20:33:10.405Z,78.50
2019-02-02T20:35:42.451Z,77.17
2019-02-02T20:38:12.354Z,74.93
2019-02-02T20:40:42.237Z,77.23
2019-02-02T20:43:12.098Z,82.73
2019-02-02T20:45:42.056Z,80.83
2019-02-02T20:48:11.944Z,78.90
2019-02-02T20:50:41.843Z,75.80
2019-02-02T20:53:11.812Z,79.40
2019-02-02T20:55:44.931Z,77.73
2019-02-02T20:58:14.787Z,76.90
2019-02-02T21:00:44.749Z,76.77
2019-02-02T21:03:14.710Z,79.87
2019-02-02T21:05:51.871Z,78.43
2019-02-02T21:08:16.148Z,79.33
2019-02-02T21:10:46.033Z,80.20
2019-02-02T21:13:15.924Z,82.90
2019-02-02T21:15:46.091Z,78.47
2019-02-02T21:18:16.264Z,78.13
2019-02-02T21:20:46.144Z,81.20
2019-02-02T21:23:16.021Z,79.63
2019-02-02T21:25:46.008Z,78.83
2019-02-02T21:28:16.250Z,80.03
2019-02-02T21:30:46.158Z,84.07
2019-02-02T21:33:15.997Z,75.80
2019-02-02T21:35:48.804Z,83.50
2019-02-02T21:38:17.568Z,78.97
2019-02-02T21:40:47.527Z,81.53
2019-02-02T21:43:17.409Z,85.40
2019-02-02T21:45:47.282Z,83.30
2019-02-02T21:48:17.130Z,83.90
2019-02-02T21:50:47.069Z,83.23
2019-02-02T21:53:17.233Z,84.73
2019-02-02T21:55:47.108Z,85.67
2019-02-02T21:58:17.584Z,87.10
2019-02-02T22:00:47.536Z,85.10
2019-02-02T22:03:17.395Z,82.57
2019-02-02T22:05:47.251Z,82.70
2019-02-02T22:08:17.152Z,83.40
2019-02-02T22:10:47.115Z,85.43
2019-02-02T22:13:17.351Z,87.30
2019-02-02T22:15:47.228Z,84.43
2019-02-02T22:18:17.186Z,81.37
2019-02-02T22:20:47.375Z,80.60
2019-02-02T22:23:17.233Z,81.90
2019-02-02T22:25:47.317Z,84.50
2019-02-02T22:28:17.210Z,83.93
2019-02-02T22:30:47.065Z,82.13
2019-02-02T22:33:16.920Z,80.87
2019-02-02T22:35:47.057Z,77.20
2019-02-02T22:38:16.971Z,81.57
2019-02-02T22:40:46.891Z,85.30
2019-02-02T22:43:16.748Z,81.70
2019-02-02T22:45:46.648Z,81.10
2019-02-02T22:48:16.604Z,78.07
2019-02-02T22:50:46.600Z,80.90
2019-02-02T22:53:16.674Z,85.13
2019-02-02T22:55:46.870Z,78.73
2019-02-02T22:58:16.730Z,77.90
2019-02-02T23:01:02.643Z,82.83
2019-02-02T23:03:44.088Z,78.83
2019-02-02T23:07:19.553Z,78.87
2019-02-02T23:10:50.847Z,72.90
2019-02-02T23:13:47.410Z,76.77
2019-02-02T23:16:29.351Z,72.93
2019-02-02T23:19:00.859Z,72.10
2019-02-02T23:21:32.234Z,70.07
2019-02-02T23:24:02.393Z,68.67
2019-02-02T23:26:32.468Z,72.80
2019-02-02T23:29:02.464Z,72.70
2019-02-02T23:31:32.337Z,73.03
2019-02-02T23:34:02.204Z,72.10
2019-02-02T23:36:32.159Z,73.40
2019-02-02T23:39:03.258Z,73.20
2019-02-02T23:41:33.406Z,76.10
2019-02-02T23:44:03.644Z,76.17
2019-02-02T23:46:33.615Z,75.57
2019-02-02T23:49:03.509Z,74.37
2019-02-02T23:51:33.467Z,72.40
2019-02-02T23:54:04.044Z,70.73
2019-02-02T23:56:34.267Z,74.73
2019-02-02T23:59:04.582Z,77.30
